sensor_id;sensor_type;location;lat;lon;timestamp;temperature;humidity
48264;DHT22;34086;51.076;13.722;2023-01-09T00:01:00;5.80;99.90
48264;DHT22;34086;51.076;13.722;2023-01-09T00:02:00;5.80;99.90
48264;DHT22;34086;51.076;13.722;2023-01-09T00:03:01;5.80;99.90
48264;DHT22;34086;51.076;13.722;2023-01-09T00:04:02;5.90;99.90
48264;DHT22;34086;51.076;13.722;2023-01-09T00:05:03;5.90;99.90
48264;DHT22;34086;51.076;13.722;2023-01-09T00:06:04;5.80;99.90
48264;DHT22;34086;51.076;13.722;2023-01-09T00:07:05;5.80;99.90
48264;DHT22;34086;51.076;13.722;2023-01-09T00:08:06;5.80;99.90
48264;DHT22;34086;51.076;13.722;2023-01-09T00:09:07;5.80;99.90
48264;DHT22;34086;51.076;13.722;2023-01-09T00:10:08;5.80;99.90
48264;DHT22;34086;51.076;13.722;2023-01-09T00:11:09;5.90;99.90
48264;DHT22;34086;51.076;13.722;2023-01-09T00:12:10;5.80;99.90
48264;DHT22;34086;51.076;13.722;2023-01-09T00:13:13;5.90;99.90
48264;DHT22;34086;51.076;13.722;2023-01-09T00:14:17;5.90;99.90
48264;DHT22;34086;51.076;13.722;2023-01-09T00:15:18;5.90;99.90
48264;DHT22;34086;51.076;13.722;2023-01-09T00:16:19;5.90;99.90
48264;DHT22;34086;51.076;13.722;2023-01-09T00:17:19;5.80;99.90
48264;DHT22;34086;51.076;13.722;2023-01-09T00:18:20;5.90;99.90
48264;DHT22;34086;51.076;13.722;2023-01-09T00:19:20;5.90;99.90
48264;DHT22;34086;51.076;13.722;2023-01-09T00:20:21;5.90;99.90
48264;DHT22;34086;51.076;13.722;2023-01-09T00:21:22;5.90;99.90
48264;DHT22;34086;51.076;13.722;2023-01-09T00:22:23;5.90;99.90
48264;DHT22;34086;51.076;13.722;2023-01-09T00:23:23;5.90;99.90
48264;DHT22;34086;51.076;13.722;2023-01-09T00:24:24;5.90;99.90
48264;DHT22;34086;51.076;13.722;2023-01-09T00:25:24;5.90;99.90
48264;DHT22;34086;51.076;13.722;2023-01-09T00:26:25;5.90;99.90
48264;DHT22;34086;51.076;13.722;2023-01-09T00:27:25;5.90;99.90
48264;DHT22;34086;51.076;13.722;2023-01-09T00:28:26;5.90;99.90
48264;DHT22;34086;51.076;13.722;2023-01-09T00:29:26;5.90;99.90
48264;DHT22;34086;51.076;13.722;2023-01-09T00:30:27;5.90;99.90
48264;DHT22;34086;51.076;13.722;2023-01-09T00:31:28;5.90;99.90
48264;DHT22;34086;51.076;13.722;2023-01-09T00:32:29;5.90;99.90
48264;DHT22;34086;51.076;13.722;2023-01-09T00:33:32;5.90;99.90
48264;DHT22;34086;51.076;13.722;2023-01-09T00:34:33;5.90;99.90
48264;DHT22;34086;51.076;13.722;2023-01-09T00:35:36;5.90;99.90
48264;DHT22;34086;51.076;13.722;2023-01-09T00:36:37;5.90;99.90
48264;DHT22;34086;51.076;13.722;2023-01-09T00:37:37;5.90;99.90
48264;DHT22;34086;51.076;13.722;2023-01-09T00:38:38;5.80;99.90
48264;DHT22;34086;51.076;13.722;2023-01-09T00:39:41;5.80;99.90
48264;DHT22;34086;51.076;13.722;2023-01-09T00:40:42;5.80;99.90
48264;DHT22;34086;51.076;13.722;2023-01-09T00:41:45;5.80;99.90
48264;DHT22;34086;51.076;13.722;2023-01-09T00:42:51;5.80;99.90
48264;DHT22;34086;51.076;13.722;2023-01-09T00:44:00;5.80;99.90
48264;DHT22;34086;51.076;13.722;2023-01-09T00:45:03;5.80;99.90
48264;DHT22;34086;51.076;13.722;2023-01-09T00:46:07;5.70;99.90
48264;DHT22;34086;51.076;13.722;2023-01-09T00:47:12;5.80;99.90
48264;DHT22;34086;51.076;13.722;2023-01-09T00:48:16;5.80;99.90
48264;DHT22;34086;51.076;13.722;2023-01-09T00:49:24;5.80;99.90
48264;DHT22;34086;51.076;13.722;2023-01-09T00:50:30;5.70;99.90
48264;DHT22;34086;51.076;13.722;2023-01-09T00:51:31;5.70;99.90
48264;DHT22;34086;51.076;13.722;2023-01-09T00:52:33;5.70;99.90
48264;DHT22;34086;51.076;13.722;2023-01-09T00:53:36;5.80;99.90
48264;DHT22;34086;51.076;13.722;2023-01-09T00:54:39;5.70;99.90
48264;DHT22;34086;51.076;13.722;2023-01-09T00:55:43;5.70;99.90
48264;DHT22;34086;51.076;13.722;2023-01-09T00:56:43;5.70;99.90
48264;DHT22;34086;51.076;13.722;2023-01-09T00:57:44;5.70;99.90
48264;DHT22;34086;51.076;13.722;2023-01-09T00:58:45;5.70;99.90
48264;DHT22;34086;51.076;13.722;2023-01-09T00:59:46;5.70;99.90
48264;DHT22;34086;51.076;13.722;2023-01-09T01:00:47;5.70;99.90
48264;DHT22;34086;51.076;13.722;2023-01-09T01:01:47;5.70;99.90
48264;DHT22;34086;51.076;13.722;2023-01-09T01:02:48;5.70;99.90
48264;DHT22;34086;51.076;13.722;2023-01-09T01:03:48;5.70;99.90
48264;DHT22;34086;51.076;13.722;2023-01-09T01:04:49;5.70;99.90
48264;DHT22;34086;51.076;13.722;2023-01-09T01:06:08;5.70;99.90
48264;DHT22;34086;51.076;13.722;2023-01-09T01:07:27;5.70;99.90
48264;DHT22;34086;51.076;13.722;2023-01-09T01:08:43;5.70;99.90
48264;DHT22;34086;51.076;13.722;2023-01-09T01:09:43;5.70;99.90
48264;DHT22;34086;51.076;13.722;2023-01-09T01:10:45;5.70;99.90
48264;DHT22;34086;51.076;13.722;2023-01-09T01:11:46;5.70;99.90
48264;DHT22;34086;51.076;13.722;2023-01-09T01:12:47;5.70;99.90
48264;DHT22;34086;51.076;13.722;2023-01-09T01:13:48;5.70;99.90
48264;DHT22;34086;51.076;13.722;2023-01-09T01:14:49;5.70;99.90
48264;DHT22;34086;51.076;13.722;2023-01-09T01:15:51;5.70;99.90
48264;DHT22;34086;51.076;13.722;2023-01-09T01:16:51;5.70;99.90
48264;DHT22;34086;51.076;13.722;2023-01-09T01:17:52;5.70;99.90
48264;DHT22;34086;51.076;13.722;2023-01-09T01:18:53;5.70;99.90
48264;DHT22;34086;51.076;13.722;2023-01-09T01:19:53;5.70;99.90
48264;DHT22;34086;51.076;13.722;2023-01-09T01:20:54;5.70;99.90
48264;DHT22;34086;51.076;13.722;2023-01-09T01:21:55;5.60;99.90
48264;DHT22;34086;51.076;13.722;2023-01-09T01:22:56;5.60;99.90
48264;DHT22;34086;51.076;13.722;2023-01-09T01:23:56;5.60;99.90
48264;DHT22;34086;51.076;13.722;2023-01-09T01:24:57;5.70;99.90
48264;DHT22;34086;51.076;13.722;2023-01-09T01:26:06;5.70;99.90
48264;DHT22;34086;51.076;13.722;2023-01-09T01:27:07;5.70;99.90
48264;DHT22;34086;51.076;13.722;2023-01-09T01:28:08;5.60;99.90
48264;DHT22;34086;51.076;13.722;2023-01-09T01:29:09;5.60;99.90
48264;DHT22;34086;51.076;13.722;2023-01-09T01:30:12;5.60;99.90
48264;DHT22;34086;51.076;13.722;2023-01-09T01:31:17;5.70;99.90
48264;DHT22;34086;51.076;13.722;2023-01-09T01:32:18;5.70;99.90
48264;DHT22;34086;51.076;13.722;2023-01-09T01:33:19;5.60;99.90
48264;DHT22;34086;51.076;13.722;2023-01-09T01:34:19;5.70;99.90
48264;DHT22;34086;51.076;13.722;2023-01-09T01:35:20;5.60;99.90
48264;DHT22;34086;51.076;13.722;2023-01-09T01:36:21;5.70;99.90
48264;DHT22;34086;51.076;13.722;2023-01-09T01:37:22;5.60;99.90
48264;DHT22;34086;51.076;13.722;2023-01-09T01:38:22;5.70;99.90
48264;DHT22;34086;51.076;13.722;2023-01-09T01:39:23;5.70;99.90
48264;DHT22;34086;51.076;13.722;2023-01-09T01:40:24;5.60;99.90
48264;DHT22;34086;51.076;13.722;2023-01-09T01:41:24;5.70;99.90
48264;DHT22;34086;51.076;13.722;2023-01-09T01:42:32;5.70;99.90
48264;DHT22;34086;51.076;13.722;2023-01-09T01:45:29;5.70;99.90
48264;DHT22;34086;51.076;13.722;2023-01-09T01:46:30;5.70;99.90
48264;DHT22;34086;51.076;13.722;2023-01-09T01:47:37;5.70;99.90
48264;DHT22;34086;51.076;13.722;2023-01-09T01:48:39;5.70;99.90
48264;DHT22;34086;51.076;13.722;2023-01-09T01:49:40;5.80;99.90
48264;DHT22;34086;51.076;13.722;2023-01-09T01:50:44;5.80;99.90
48264;DHT22;34086;51.076;13.722;2023-01-09T01:51:49;5.70;99.90
48264;DHT22;34086;51.076;13.722;2023-01-09T01:53:14;5.80;99.90
48264;DHT22;34086;51.076;13.722;2023-01-09T01:54:22;5.80;99.90
48264;DHT22;34086;51.076;13.722;2023-01-09T01:55:23;5.80;99.90
48264;DHT22;34086;51.076;13.722;2023-01-09T01:56:36;5.80;99.90
48264;DHT22;34086;51.076;13.722;2023-01-09T01:57:41;5.80;99.90
48264;DHT22;34086;51.076;13.722;2023-01-09T01:58:49;5.80;99.90
48264;DHT22;34086;51.076;13.722;2023-01-09T01:59:55;5.80;99.90
48264;DHT22;34086;51.076;13.722;2023-01-09T02:00:57;5.80;99.90
48264;DHT22;34086;51.076;13.722;2023-01-09T02:01:59;5.80;99.90
48264;DHT22;34086;51.076;13.722;2023-01-09T02:03:01;5.80;99.90
48264;DHT22;34086;51.076;13.722;2023-01-09T02:04:02;5.80;99.90
48264;DHT22;34086;51.076;13.722;2023-01-09T02:05:04;5.80;99.90
48264;DHT22;34086;51.076;13.722;2023-01-09T02:06:05;5.80;99.90
48264;DHT22;34086;51.076;13.722;2023-01-09T02:07:08;5.80;99.90
48264;DHT22;34086;51.076;13.722;2023-01-09T02:08:09;5.80;99.90
48264;DHT22;34086;51.076;13.722;2023-01-09T02:09:11;5.80;99.90
48264;DHT22;34086;51.076;13.722;2023-01-09T02:10:15;5.80;99.90
48264;DHT22;34086;51.076;13.722;2023-01-09T02:11:17;5.90;99.90
48264;DHT22;34086;51.076;13.722;2023-01-09T02:12:24;5.90;99.90
48264;DHT22;34086;51.076;13.722;2023-01-09T02:13:26;5.80;99.90
48264;DHT22;34086;51.076;13.722;2023-01-09T02:14:28;5.80;99.90
48264;DHT22;34086;51.076;13.722;2023-01-09T02:15:43;5.90;99.90
48264;DHT22;34086;51.076;13.722;2023-01-09T02:18:15;5.90;99.90
48264;DHT22;34086;51.076;13.722;2023-01-09T02:20:51;5.90;99.90
48264;DHT22;34086;51.076;13.722;2023-01-09T02:23:03;5.90;99.90
48264;DHT22;34086;51.076;13.722;2023-01-09T02:24:22;5.90;99.90
48264;DHT22;34086;51.076;13.722;2023-01-09T02:25:46;5.90;99.90
48264;DHT22;34086;51.076;13.722;2023-01-09T02:31:17;6.00;99.90
48264;DHT22;34086;51.076;13.722;2023-01-09T02:34:03;6.00;99.90
48264;DHT22;34086;51.076;13.722;2023-01-09T02:35:15;6.00;99.90
48264;DHT22;34086;51.076;13.722;2023-01-09T02:39:31;6.00;99.90
48264;DHT22;34086;51.076;13.722;2023-01-09T02:40:52;6.00;99.90
48264;DHT22;34086;51.076;13.722;2023-01-09T02:42:04;6.00;99.90
48264;DHT22;34086;51.076;13.722;2023-01-09T02:43:09;6.00;99.90
48264;DHT22;34086;51.076;13.722;2023-01-09T02:44:19;6.00;99.90
48264;DHT22;34086;51.076;13.722;2023-01-09T02:45:20;6.00;99.90
48264;DHT22;34086;51.076;13.722;2023-01-09T02:46:21;6.00;99.90
48264;DHT22;34086;51.076;13.722;2023-01-09T02:48:23;6.00;99.90
48264;DHT22;34086;51.076;13.722;2023-01-09T02:49:23;6.00;99.90
48264;DHT22;34086;51.076;13.722;2023-01-09T02:50:34;6.00;99.90
48264;DHT22;34086;51.076;13.722;2023-01-09T02:51:45;6.00;99.90
48264;DHT22;34086;51.076;13.722;2023-01-09T02:54:51;6.10;99.90
48264;DHT22;34086;51.076;13.722;2023-01-09T02:59:10;6.00;99.90
48264;DHT22;34086;51.076;13.722;2023-01-09T03:00:27;6.00;99.90
48264;DHT22;34086;51.076;13.722;2023-01-09T03:02:46;6.00;99.90
48264;DHT22;34086;51.076;13.722;2023-01-09T03:04:08;6.00;99.90
48264;DHT22;34086;51.076;13.722;2023-01-09T03:05:31;6.00;99.90
48264;DHT22;34086;51.076;13.722;2023-01-09T03:07:03;6.00;99.90
48264;DHT22;34086;51.076;13.722;2023-01-09T03:08:09;6.00;99.90
48264;DHT22;34086;51.076;13.722;2023-01-09T03:09:20;6.00;99.90
48264;DHT22;34086;51.076;13.722;2023-01-09T03:12:11;6.00;99.90
48264;DHT22;34086;51.076;13.722;2023-01-09T03:13:16;6.00;99.90
48264;DHT22;34086;51.076;13.722;2023-01-09T03:14:20;5.90;99.90
48264;DHT22;34086;51.076;13.722;2023-01-09T03:15:25;5.90;99.90
48264;DHT22;34086;51.076;13.722;2023-01-09T03:16:31;6.00;99.90
48264;DHT22;34086;51.076;13.722;2023-01-09T03:17:36;5.90;99.90
48264;DHT22;34086;51.076;13.722;2023-01-09T03:18:38;5.90;99.90
48264;DHT22;34086;51.076;13.722;2023-01-09T03:19:40;5.90;99.90
48264;DHT22;34086;51.076;13.722;2023-01-09T03:20:41;5.90;99.90
48264;DHT22;34086;51.076;13.722;2023-01-09T03:21:43;5.90;99.90
48264;DHT22;34086;51.076;13.722;2023-01-09T03:23:05;5.90;99.90
48264;DHT22;34086;51.076;13.722;2023-01-09T03:24:06;5.80;99.90
48264;DHT22;34086;51.076;13.722;2023-01-09T03:25:06;5.80;99.90
48264;DHT22;34086;51.076;13.722;2023-01-09T03:26:10;5.80;99.90
48264;DHT22;34086;51.076;13.722;2023-01-09T03:27:10;5.80;99.90
48264;DHT22;34086;51.076;13.722;2023-01-09T03:28:37;5.80;99.90
48264;DHT22;34086;51.076;13.722;2023-01-09T03:29:37;5.90;99.90
48264;DHT22;34086;51.076;13.722;2023-01-09T03:30:38;5.80;99.90
48264;DHT22;34086;51.076;13.722;2023-01-09T03:31:39;5.80;99.90
48264;DHT22;34086;51.076;13.722;2023-01-09T03:32:39;5.80;99.90
48264;DHT22;34086;51.076;13.722;2023-01-09T03:33:40;5.70;99.90
48264;DHT22;34086;51.076;13.722;2023-01-09T03:34:41;5.70;99.90
48264;DHT22;34086;51.076;13.722;2023-01-09T03:35:41;5.70;99.90
48264;DHT22;34086;51.076;13.722;2023-01-09T03:36:42;5.70;99.90
48264;DHT22;34086;51.076;13.722;2023-01-09T03:37:42;5.70;99.90
48264;DHT22;34086;51.076;13.722;2023-01-09T03:38:43;5.70;99.90
48264;DHT22;34086;51.076;13.722;2023-01-09T03:39:43;5.70;99.90
48264;DHT22;34086;51.076;13.722;2023-01-09T03:40:44;5.70;99.90
48264;DHT22;34086;51.076;13.722;2023-01-09T03:41:44;5.70;99.90
48264;DHT22;34086;51.076;13.722;2023-01-09T03:42:45;5.70;99.90
48264;DHT22;34086;51.076;13.722;2023-01-09T03:43:46;5.70;99.90
48264;DHT22;34086;51.076;13.722;2023-01-09T03:44:47;5.70;99.90
48264;DHT22;34086;51.076;13.722;2023-01-09T03:45:50;5.70;99.90
48264;DHT22;34086;51.076;13.722;2023-01-09T03:46:50;5.70;99.90
48264;DHT22;34086;51.076;13.722;2023-01-09T03:47:51;5.70;99.90
48264;DHT22;34086;51.076;13.722;2023-01-09T03:48:51;5.70;99.90
48264;DHT22;34086;51.076;13.722;2023-01-09T03:49:52;5.70;99.90
48264;DHT22;34086;51.076;13.722;2023-01-09T03:50:53;5.70;99.90
48264;DHT22;34086;51.076;13.722;2023-01-09T03:51:54;5.60;99.90
48264;DHT22;34086;51.076;13.722;2023-01-09T03:52:54;5.60;99.90
48264;DHT22;34086;51.076;13.722;2023-01-09T03:53:55;5.60;99.90
48264;DHT22;34086;51.076;13.722;2023-01-09T03:54:55;5.70;99.90
48264;DHT22;34086;51.076;13.722;2023-01-09T03:55:56;5.60;99.90
48264;DHT22;34086;51.076;13.722;2023-01-09T03:56:57;5.60;99.90
48264;DHT22;34086;51.076;13.722;2023-01-09T03:57:57;5.70;99.90
48264;DHT22;34086;51.076;13.722;2023-01-09T03:58:58;5.60;99.90
48264;DHT22;34086;51.076;13.722;2023-01-09T03:59:58;5.60;99.90
48264;DHT22;34086;51.076;13.722;2023-01-09T04:01:01;5.60;99.90
48264;DHT22;34086;51.076;13.722;2023-01-09T04:02:02;5.60;99.90
48264;DHT22;34086;51.076;13.722;2023-01-09T04:03:03;5.70;99.90
48264;DHT22;34086;51.076;13.722;2023-01-09T04:04:04;5.70;99.90
48264;DHT22;34086;51.076;13.722;2023-01-09T04:05:05;5.70;99.90
48264;DHT22;34086;51.076;13.722;2023-01-09T04:06:06;5.70;99.90
48264;DHT22;34086;51.076;13.722;2023-01-09T04:07:06;5.70;99.90
48264;DHT22;34086;51.076;13.722;2023-01-09T04:08:07;5.70;99.90
48264;DHT22;34086;51.076;13.722;2023-01-09T04:09:07;5.80;99.90
48264;DHT22;34086;51.076;13.722;2023-01-09T04:10:08;5.70;99.90
48264;DHT22;34086;51.076;13.722;2023-01-09T04:11:09;5.80;99.90
48264;DHT22;34086;51.076;13.722;2023-01-09T04:12:10;5.70;99.90
48264;DHT22;34086;51.076;13.722;2023-01-09T04:13:10;5.80;99.90
48264;DHT22;34086;51.076;13.722;2023-01-09T04:14:11;5.80;99.90
48264;DHT22;34086;51.076;13.722;2023-01-09T04:15:11;5.70;99.90
48264;DHT22;34086;51.076;13.722;2023-01-09T04:16:12;5.80;99.90
48264;DHT22;34086;51.076;13.722;2023-01-09T04:17:13;5.70;99.90
48264;DHT22;34086;51.076;13.722;2023-01-09T04:18:15;5.80;99.90
48264;DHT22;34086;51.076;13.722;2023-01-09T04:19:16;5.70;99.90
48264;DHT22;34086;51.076;13.722;2023-01-09T04:20:17;5.80;99.90
48264;DHT22;34086;51.076;13.722;2023-01-09T04:21:17;5.70;99.90
48264;DHT22;34086;51.076;13.722;2023-01-09T04:22:18;5.80;99.90
48264;DHT22;34086;51.076;13.722;2023-01-09T04:23:18;5.70;99.90
48264;DHT22;34086;51.076;13.722;2023-01-09T04:24:19;5.70;99.90
48264;DHT22;34086;51.076;13.722;2023-01-09T04:25:19;5.70;99.90
48264;DHT22;34086;51.076;13.722;2023-01-09T04:26:22;5.70;99.90
48264;DHT22;34086;51.076;13.722;2023-01-09T04:27:22;5.70;99.90
48264;DHT22;34086;51.076;13.722;2023-01-09T04:28:23;5.70;99.90
48264;DHT22;34086;51.076;13.722;2023-01-09T04:29:23;5.80;99.90
48264;DHT22;34086;51.076;13.722;2023-01-09T04:30:24;5.70;99.90
48264;DHT22;34086;51.076;13.722;2023-01-09T04:31:25;5.70;99.90
48264;DHT22;34086;51.076;13.722;2023-01-09T04:32:25;5.70;99.90
48264;DHT22;34086;51.076;13.722;2023-01-09T04:33:27;5.70;99.90
48264;DHT22;34086;51.076;13.722;2023-01-09T04:34:27;5.70;99.90
48264;DHT22;34086;51.076;13.722;2023-01-09T04:35:28;5.80;99.90
48264;DHT22;34086;51.076;13.722;2023-01-09T04:36:29;5.80;99.90
48264;DHT22;34086;51.076;13.722;2023-01-09T04:37:29;5.80;99.90
48264;DHT22;34086;51.076;13.722;2023-01-09T04:38:30;5.80;99.90
48264;DHT22;34086;51.076;13.722;2023-01-09T04:39:30;5.80;99.90
48264;DHT22;34086;51.076;13.722;2023-01-09T04:40:31;5.80;99.90
48264;DHT22;34086;51.076;13.722;2023-01-09T04:41:32;5.80;99.90
48264;DHT22;34086;51.076;13.722;2023-01-09T04:42:50;5.80;99.90
48264;DHT22;34086;51.076;13.722;2023-01-09T04:43:51;5.80;99.90
48264;DHT22;34086;51.076;13.722;2023-01-09T04:44:51;5.80;99.90
48264;DHT22;34086;51.076;13.722;2023-01-09T04:45:53;5.80;99.90
48264;DHT22;34086;51.076;13.722;2023-01-09T04:46:55;5.80;99.90
48264;DHT22;34086;51.076;13.722;2023-01-09T04:47:58;5.80;99.90
48264;DHT22;34086;51.076;13.722;2023-01-09T04:48:58;5.80;99.90
48264;DHT22;34086;51.076;13.722;2023-01-09T04:49:59;5.80;99.90
48264;DHT22;34086;51.076;13.722;2023-01-09T04:51:00;5.80;99.90
48264;DHT22;34086;51.076;13.722;2023-01-09T04:52:00;5.90;99.90
48264;DHT22;34086;51.076;13.722;2023-01-09T04:53:01;5.90;99.90
48264;DHT22;34086;51.076;13.722;2023-01-09T04:54:01;5.80;99.90
48264;DHT22;34086;51.076;13.722;2023-01-09T04:55:02;5.80;99.90
48264;DHT22;34086;51.076;13.722;2023-01-09T04:56:04;5.80;99.90
48264;DHT22;34086;51.076;13.722;2023-01-09T04:57:05;5.90;99.90
48264;DHT22;34086;51.076;13.722;2023-01-09T04:58:06;5.90;99.90
48264;DHT22;34086;51.076;13.722;2023-01-09T04:59:07;5.90;99.90
48264;DHT22;34086;51.076;13.722;2023-01-09T05:00:08;5.90;99.90
48264;DHT22;34086;51.076;13.722;2023-01-09T05:01:11;5.80;99.90
48264;DHT22;34086;51.076;13.722;2023-01-09T05:02:11;5.90;99.90
48264;DHT22;34086;51.076;13.722;2023-01-09T05:03:12;5.90;99.90
48264;DHT22;34086;51.076;13.722;2023-01-09T05:04:12;5.90;99.90
48264;DHT22;34086;51.076;13.722;2023-01-09T05:05:13;5.90;99.90
48264;DHT22;34086;51.076;13.722;2023-01-09T05:06:14;5.90;99.90
48264;DHT22;34086;51.076;13.722;2023-01-09T05:07:14;5.90;99.90
48264;DHT22;34086;51.076;13.722;2023-01-09T05:08:15;5.90;99.90
48264;DHT22;34086;51.076;13.722;2023-01-09T05:09:15;5.90;99.90
48264;DHT22;34086;51.076;13.722;2023-01-09T05:10:16;5.90;99.90
48264;DHT22;34086;51.076;13.722;2023-01-09T05:11:16;6.00;99.90
48264;DHT22;34086;51.076;13.722;2023-01-09T05:12:17;6.00;99.90
48264;DHT22;34086;51.076;13.722;2023-01-09T05:13:18;6.00;99.90
48264;DHT22;34086;51.076;13.722;2023-01-09T05:14:18;6.00;99.90
48264;DHT22;34086;51.076;13.722;2023-01-09T05:15:19;6.10;99.90
48264;DHT22;34086;51.076;13.722;2023-01-09T05:16:21;6.10;99.90
48264;DHT22;34086;51.076;13.722;2023-01-09T05:17:21;6.10;99.90
48264;DHT22;34086;51.076;13.722;2023-01-09T05:18:22;6.10;99.90
48264;DHT22;34086;51.076;13.722;2023-01-09T05:19:22;6.20;99.90
48264;DHT22;34086;51.076;13.722;2023-01-09T05:20:23;6.20;99.90
48264;DHT22;34086;51.076;13.722;2023-01-09T05:21:24;6.30;99.90
48264;DHT22;34086;51.076;13.722;2023-01-09T05:22:25;6.30;99.90
48264;DHT22;34086;51.076;13.722;2023-01-09T05:23:26;6.30;99.90
48264;DHT22;34086;51.076;13.722;2023-01-09T05:24:26;6.30;99.90
48264;DHT22;34086;51.076;13.722;2023-01-09T05:25:27;6.30;99.90
48264;DHT22;34086;51.076;13.722;2023-01-09T05:26:28;6.30;99.90
48264;DHT22;34086;51.076;13.722;2023-01-09T05:27:28;6.30;99.90
48264;DHT22;34086;51.076;13.722;2023-01-09T05:28:30;6.30;99.90
48264;DHT22;34086;51.076;13.722;2023-01-09T05:29:31;6.30;99.90
48264;DHT22;34086;51.076;13.722;2023-01-09T05:30:31;6.30;99.90
48264;DHT22;34086;51.076;13.722;2023-01-09T05:31:32;6.30;99.90
48264;DHT22;34086;51.076;13.722;2023-01-09T05:32:33;6.30;99.90
48264;DHT22;34086;51.076;13.722;2023-01-09T05:33:33;6.30;99.90
48264;DHT22;34086;51.076;13.722;2023-01-09T05:34:34;6.30;99.90
48264;DHT22;34086;51.076;13.722;2023-01-09T05:35:34;6.20;99.90
48264;DHT22;34086;51.076;13.722;2023-01-09T05:36:35;6.20;99.90
48264;DHT22;34086;51.076;13.722;2023-01-09T05:37:36;6.30;99.90
48264;DHT22;34086;51.076;13.722;2023-01-09T05:38:36;6.30;99.90
48264;DHT22;34086;51.076;13.722;2023-01-09T05:39:37;6.30;99.90
48264;DHT22;34086;51.076;13.722;2023-01-09T05:40:37;6.20;99.90
48264;DHT22;34086;51.076;13.722;2023-01-09T05:41:38;6.30;99.90
48264;DHT22;34086;51.076;13.722;2023-01-09T05:42:39;6.30;99.90
48264;DHT22;34086;51.076;13.722;2023-01-09T05:43:40;6.20;99.90
48264;DHT22;34086;51.076;13.722;2023-01-09T05:44:40;6.20;99.90
48264;DHT22;34086;51.076;13.722;2023-01-09T05:45:42;6.10;99.90
48264;DHT22;34086;51.076;13.722;2023-01-09T05:46:42;6.10;99.90
48264;DHT22;34086;51.076;13.722;2023-01-09T05:47:44;6.00;99.90
48264;DHT22;34086;51.076;13.722;2023-01-09T05:48:44;5.90;99.90
48264;DHT22;34086;51.076;13.722;2023-01-09T05:49:45;5.90;99.90
48264;DHT22;34086;51.076;13.722;2023-01-09T05:50:45;5.80;99.90
48264;DHT22;34086;51.076;13.722;2023-01-09T05:51:46;5.80;99.90
48264;DHT22;34086;51.076;13.722;2023-01-09T05:52:47;5.80;99.90
48264;DHT22;34086;51.076;13.722;2023-01-09T05:53:47;5.70;99.90
48264;DHT22;34086;51.076;13.722;2023-01-09T05:54:48;5.70;99.90
48264;DHT22;34086;51.076;13.722;2023-01-09T05:55:48;5.70;99.90
48264;DHT22;34086;51.076;13.722;2023-01-09T05:56:49;5.70;99.90
48264;DHT22;34086;51.076;13.722;2023-01-09T05:57:49;5.70;99.90
48264;DHT22;34086;51.076;13.722;2023-01-09T05:58:50;5.60;99.90
48264;DHT22;34086;51.076;13.722;2023-01-09T05:59:50;5.60;99.90
48264;DHT22;34086;51.076;13.722;2023-01-09T06:00:52;5.60;99.90
48264;DHT22;34086;51.076;13.722;2023-01-09T06:01:53;5.60;99.90
48264;DHT22;34086;51.076;13.722;2023-01-09T06:02:53;5.60;99.90
48264;DHT22;34086;51.076;13.722;2023-01-09T06:03:54;5.50;99.90
48264;DHT22;34086;51.076;13.722;2023-01-09T06:04:54;5.60;99.90
48264;DHT22;34086;51.076;13.722;2023-01-09T06:05:55;5.50;99.90
48264;DHT22;34086;51.076;13.722;2023-01-09T06:06:56;5.50;99.90
48264;DHT22;34086;51.076;13.722;2023-01-09T06:07:56;5.50;99.90
48264;DHT22;34086;51.076;13.722;2023-01-09T06:08:57;5.50;99.90
48264;DHT22;34086;51.076;13.722;2023-01-09T06:09:57;5.50;99.90
48264;DHT22;34086;51.076;13.722;2023-01-09T06:10:58;5.60;99.90
48264;DHT22;34086;51.076;13.722;2023-01-09T06:11:58;5.60;99.90
48264;DHT22;34086;51.076;13.722;2023-01-09T06:12:59;5.50;99.90
48264;DHT22;34086;51.076;13.722;2023-01-09T06:14:00;5.60;99.90
48264;DHT22;34086;51.076;13.722;2023-01-09T06:15:01;5.60;99.90
48264;DHT22;34086;51.076;13.722;2023-01-09T06:16:02;5.60;99.90
48264;DHT22;34086;51.076;13.722;2023-01-09T06:17:02;5.60;99.90
48264;DHT22;34086;51.076;13.722;2023-01-09T06:18:03;5.60;99.90
48264;DHT22;34086;51.076;13.722;2023-01-09T06:19:04;5.60;99.90
48264;DHT22;34086;51.076;13.722;2023-01-09T06:20:08;5.60;99.90
48264;DHT22;34086;51.076;13.722;2023-01-09T06:21:09;5.60;99.90
48264;DHT22;34086;51.076;13.722;2023-01-09T06:22:10;5.60;99.90
48264;DHT22;34086;51.076;13.722;2023-01-09T06:23:10;5.60;99.90
48264;DHT22;34086;51.076;13.722;2023-01-09T06:24:11;5.60;99.90
48264;DHT22;34086;51.076;13.722;2023-01-09T06:25:12;5.60;99.90
48264;DHT22;34086;51.076;13.722;2023-01-09T06:26:12;5.60;99.90
48264;DHT22;34086;51.076;13.722;2023-01-09T06:27:13;5.60;99.90
48264;DHT22;34086;51.076;13.722;2023-01-09T06:28:14;5.60;99.90
48264;DHT22;34086;51.076;13.722;2023-01-09T06:29:14;5.60;99.90
48264;DHT22;34086;51.076;13.722;2023-01-09T06:30:15;5.60;99.90
48264;DHT22;34086;51.076;13.722;2023-01-09T06:31:15;5.70;99.90
48264;DHT22;34086;51.076;13.722;2023-01-09T06:32:16;5.60;99.90
48264;DHT22;34086;51.076;13.722;2023-01-09T06:33:17;5.70;99.90
48264;DHT22;34086;51.076;13.722;2023-01-09T06:34:18;5.70;99.90
48264;DHT22;34086;51.076;13.722;2023-01-09T06:35:18;5.70;99.90
48264;DHT22;34086;51.076;13.722;2023-01-09T06:36:20;5.70;99.90
48264;DHT22;34086;51.076;13.722;2023-01-09T06:37:21;5.70;99.90
48264;DHT22;34086;51.076;13.722;2023-01-09T06:38:21;5.70;99.90
48264;DHT22;34086;51.076;13.722;2023-01-09T06:39:22;5.70;99.90
48264;DHT22;34086;51.076;13.722;2023-01-09T06:40:22;5.70;99.90
48264;DHT22;34086;51.076;13.722;2023-01-09T06:41:23;5.70;99.90
48264;DHT22;34086;51.076;13.722;2023-01-09T06:42:23;5.70;99.90
48264;DHT22;34086;51.076;13.722;2023-01-09T06:43:24;5.70;99.90
48264;DHT22;34086;51.076;13.722;2023-01-09T06:44:24;5.80;99.90
48264;DHT22;34086;51.076;13.722;2023-01-09T06:45:25;5.80;99.90
48264;DHT22;34086;51.076;13.722;2023-01-09T06:46:25;5.80;99.90
48264;DHT22;34086;51.076;13.722;2023-01-09T06:47:26;5.80;99.90
48264;DHT22;34086;51.076;13.722;2023-01-09T06:48:27;5.80;99.90
48264;DHT22;34086;51.076;13.722;2023-01-09T06:49:27;5.80;99.90
48264;DHT22;34086;51.076;13.722;2023-01-09T06:50:28;5.80;99.90
48264;DHT22;34086;51.076;13.722;2023-01-09T06:51:28;5.80;99.90
48264;DHT22;34086;51.076;13.722;2023-01-09T06:52:29;5.80;99.90
48264;DHT22;34086;51.076;13.722;2023-01-09T06:53:29;5.80;99.90
48264;DHT22;34086;51.076;13.722;2023-01-09T06:54:30;5.90;99.90
48264;DHT22;34086;51.076;13.722;2023-01-09T06:55:31;5.90;99.90
48264;DHT22;34086;51.076;13.722;2023-01-09T06:56:31;5.90;99.90
48264;DHT22;34086;51.076;13.722;2023-01-09T06:57:32;5.80;99.90
48264;DHT22;34086;51.076;13.722;2023-01-09T06:58:32;5.90;99.90